Time;durP1;ratioP1;P1;durP2;ratioP2;P2;SDS_P1;SDS_P2;PMS_P1;PMS_P2;Temp;Humidity;BMP_temperature;BMP_pressure;BME280_temperature;BME280_humidity;BME280_pressure;Samples;Min_cycle;Max_cycle;Signal;HPM_P1;HPM_P2
2022/03/06 00:00:23;;;;;;;29.40;11.57;;;;;;;12.35;36.39;102531.69;5113300;27;20333;-74
2022/03/06 00:02:48;;;;;;;28.47;11.10;;;;;;;11.15;38.87;102530.19;5113726;27;20027;-74
2022/03/06 00:05:14;;;;;;;30.90;11.30;;;;;;;11.60;38.39;102529.06;5113970;27;20065;-74
2022/03/06 00:07:39;;;;;;;33.00;9.33;;;;;;;10.99;38.98;102529.97;5114549;27;20023;-74
2022/03/06 00:10:05;;;;;;;28.90;11.83;;;;;;;11.63;37.52;102523.88;5131139;27;20489;-75
2022/03/06 00:12:31;;;;;;;23.60;10.60;;;;;;;10.94;38.82;102531.63;5133042;27;20120;-74
2022/03/06 00:14:56;;;;;;;29.90;11.13;;;;;;;12.13;37.23;102529.72;5114195;27;20114;-73
2022/03/06 00:17:21;;;;;;;29.93;11.73;;;;;;;11.35;38.57;102528.75;5113400;27;20027;-74
2022/03/06 00:19:47;;;;;;;25.47;10.60;;;;;;;11.73;37.65;102532.72;5114147;27;20054;-74
2022/03/06 00:22:12;;;;;;;28.17;10.83;;;;;;;11.89;37.34;102537.28;5113023;27;20138;-74
2022/03/06 00:24:37;;;;;;;33.37;11.50;;;;;;;12.35;36.83;102533.41;5113517;27;20109;-74
2022/03/06 00:27:03;;;;;;;27.37;10.73;;;;;;;10.37;40.08;102548.09;5113822;27;20076;-74
2022/03/06 00:29:29;;;;;;;31.33;10.97;;;;;;;11.91;37.68;102539.94;5113605;27;20023;-74
2022/03/06 00:31:54;;;;;;;27.40;9.47;;;;;;;11.67;37.17;102541.38;5113460;27;20021;-74
2022/03/06 00:34:20;;;;;;;22.80;8.83;;;;;;;10.94;38.42;102544.72;5131987;27;20041;-74
2022/03/06 00:36:45;;;;;;;29.63;10.50;;;;;;;11.84;37.34;102532.84;5113224;27;20117;-74
2022/03/06 00:39:11;;;;;;;23.47;9.33;;;;;;;11.38;37.61;102534.03;5112985;27;20096;-74
2022/03/06 00:41:36;;;;;;;28.50;11.07;;;;;;;11.64;37.79;102541.34;5113966;27;20482;-74
2022/03/06 00:44:02;;;;;;;25.37;9.37;;;;;;;10.61;39.31;102552.91;5131419;27;20035;-74
2022/03/06 00:46:28;;;;;;;22.77;9.40;;;;;;;10.64;39.49;102553.81;5131316;27;20031;-74
2022/03/06 00:48:53;;;;;;;26.20;10.63;;;;;;;10.76;39.37;102550.53;5113525;27;20029;-74
2022/03/06 00:51:18;;;;;;;24.93;9.87;;;;;;;12.24;35.72;102538.59;5112132;27;20022;-74
2022/03/06 00:53:44;;;;;;;23.23;8.63;;;;;;;10.48;38.79;102554.41;5114199;27;20023;-74
2022/03/06 00:56:10;;;;;;;26.63;9.43;;;;;;;12.02;36.58;102553.16;5112591;27;20058;-74
2022/03/06 00:58:37;;;;;;;25.70;10.13;;;;;;;11.31;37.83;102560.97;5111970;27;20150;-74
2022/03/06 01:01:04;;;;;;;28.73;10.13;;;;;;;10.85;38.97;102562.88;5113374;27;20031;-74
2022/03/06 01:03:30;;;;;;;23.27;9.00;;;;;;;11.42;37.37;102548.03;5093601;28;20019;-74
2022/03/06 01:05:56;;;;;;;20.87;8.13;;;;;;;10.54;39.08;102567.59;5109060;27;20072;-73
2022/03/06 01:08:21;;;;;;;27.53;10.00;;;;;;;10.92;38.35;102575.22;5112476;27;20054;-74
2022/03/06 01:10:48;;;;;;;18.23;7.43;;;;;;;11.04;37.42;102577.13;5131792;27;20090;-74
2022/03/06 01:13:17;;;;;;;29.83;10.50;;;;;;;11.02;38.23;102576.25;5111131;27;20050;-74
2022/03/06 01:15:42;;;;;;;21.73;8.63;;;;;;;10.39;39.44;102585.63;5113280;27;20475;-74
2022/03/06 01:18:08;;;;;;;20.47;8.20;;;;;;;10.62;38.59;102591.25;5112158;27;20068;-73
2022/03/06 01:20:36;;;;;;;22.03;9.13;;;;;;;11.42;37.40;102582.09;5130682;27;20482;-74
2022/03/06 01:23:03;;;;;;;22.03;9.13;;;;;;;10.68;38.25;102587.00;5112344;27;20039;-74
2022/03/06 01:25:29;;;;;;;24.23;9.87;;;;;;;10.42;39.15;102588.28;5112791;27;20083;-74
2022/03/06 01:27:54;;;;;;;25.33;9.07;;;;;;;11.06;37.95;102585.91;5130654;27;20382;-74
2022/03/06 01:30:21;;;;;;;20.63;7.83;;;;;;;10.74;38.30;102590.59;5111928;27;20023;-74
2022/03/06 01:32:50;;;;;;;23.17;8.63;;;;;;;11.05;37.81;102592.00;5112197;27;20023;-74
2022/03/06 01:35:16;;;;;;;20.47;8.23;;;;;;;10.61;38.50;102599.97;5112194;27;20027;-74
2022/03/06 01:37:41;;;;;;;21.60;8.30;;;;;;;10.35;38.53;102593.38;5113227;27;20080;-74
2022/03/06 01:40:08;;;;;;;22.47;7.50;;;;;;;10.53;37.94;102607.66;5129075;27;20019;-74
2022/03/06 01:42:34;;;;;;;21.20;8.67;;;;;;;10.71;37.99;102608.84;5131352;27;20035;-74
2022/03/06 01:44:59;;;;;;;20.87;8.27;;;;;;;11.30;37.11;102603.72;5112244;28;20026;-74
2022/03/06 01:47:42;;;;;;;22.07;8.17;;;;;;;10.78;37.34;102608.09;5111572;27;20023;-74
2022/03/06 01:50:09;;;;;;;23.00;9.23;;;;;;;11.19;37.51;102611.41;5112058;27;20019;-74
2022/03/06 01:52:34;;;;;;;14.10;6.53;;;;;;;10.04;38.17;102611.91;5085349;27;20046;-74
2022/03/06 01:55:00;;;;;;;19.80;8.70;;;;;;;10.35;38.51;102613.44;5037625;27;20190;-75
2022/03/06 01:57:28;;;;;;;17.97;8.50;;;;;;;10.87;37.74;102610.88;5036511;28;20193;-74
2022/03/06 01:59:53;;;;;;;19.10;7.90;;;;;;;10.48;38.16;102604.06;5108193;28;20027;-74
2022/03/06 02:02:19;;;;;;;16.80;7.17;;;;;;;11.17;37.30;102607.03;5111597;28;20436;-74
2022/03/06 02:04:45;;;;;;;18.57;7.63;;;;;;;10.54;37.70;102609.44;5131403;28;20087;-74
2022/03/06 02:07:10;;;;;;;16.10;6.80;;;;;;;11.09;36.49;102608.63;5129925;27;20069;-74
2022/03/06 02:09:36;;;;;;;20.83;7.83;;;;;;;11.54;35.91;102610.19;5112081;28;20055;-74
2022/03/06 02:14:45;;;;;;;16.73;7.50;;;;;;;10.33;37.60;102605.53;5124535;28;20042;-74
2022/03/06 02:17:10;;;;;;;17.03;7.53;;;;;;;12.07;34.94;102603.03;5111114;28;20370;-73
2022/03/06 02:19:51;;;;;;;18.97;8.13;;;;;;;11.85;35.24;102610.59;5092503;28;20106;-74
2022/03/06 02:22:20;;;;;;;17.63;7.67;;;;;;;11.15;36.81;102611.34;5107789;27;20405;-74
2022/03/06 02:24:46;;;;;;;19.43;7.87;;;;;;;10.93;37.27;102613.59;5134881;27;20084;-73
2022/03/06 02:27:12;;;;;;;20.70;9.20;;;;;;;11.48;36.14;102613.56;5115659;27;20035;-74
2022/03/06 02:29:42;;;;;;;19.27;7.80;;;;;;;11.37;36.14;102600.34;5134435;27;20474;-74
2022/03/06 02:32:12;;;;;;;18.00;8.40;;;;;;;11.08;37.38;102607.72;5133798;27;20027;-73
2022/03/06 02:34:39;;;;;;;16.63;6.90;;;;;;;11.26;36.64;102607.13;5116242;27;20079;-74
2022/03/06 02:37:05;;;;;;;17.13;7.70;;;;;;;11.38;36.43;102612.56;5115048;27;20512;-73
2022/03/06 02:39:31;;;;;;;17.03;7.60;;;;;;;11.47;36.47;102608.31;5115973;27;20027;-74
2022/03/06 02:41:56;;;;;;;16.50;7.60;;;;;;;11.16;37.59;102610.50;5134234;27;20042;-74
2022/03/06 02:44:22;;;;;;;18.20;7.20;;;;;;;10.63;37.92;102609.63;5114916;27;20115;-74
2022/03/06 02:46:48;;;;;;;16.23;7.30;;;;;;;11.00;37.54;102615.47;5116610;27;20023;-73
2022/03/06 02:49:14;;;;;;;16.50;7.37;;;;;;;10.56;38.70;102618.16;5115167;27;20394;-73
2022/03/06 02:51:41;;;;;;;19.40;8.20;;;;;;;10.97;38.04;102610.16;5115293;27;20031;-73
2022/03/06 02:54:06;;;;;;;17.03;7.77;;;;;;;11.40;37.26;102615.19;5115381;27;20039;-73
2022/03/06 02:56:32;;;;;;;18.73;8.63;;;;;;;11.24;37.60;102619.34;5116261;27;20027;-74
2022/03/06 02:58:58;;;;;;;19.23;8.43;;;;;;;11.63;36.08;102607.69;5114765;27;20027;-74
2022/03/06 03:01:24;;;;;;;17.93;8.07;;;;;;;12.05;35.54;102609.13;5105783;27;20114;-73
2022/03/06 03:03:49;;;;;;;23.20;8.13;;;;;;;11.87;36.35;102608.88;5115845;27;20114;-74
2022/03/06 03:06:15;;;;;;;14.07;7.13;;;;;;;10.65;38.14;102613.13;5114442;27;20023;-74
2022/03/06 03:08:41;;;;;;;18.20;8.10;;;;;;;11.85;36.27;102605.34;5115568;27;20031;-74
2022/03/06 03:11:07;;;;;;;19.57;9.07;;;;;;;11.38;36.83;102606.47;5114659;27;20055;-74
2022/03/06 03:13:32;;;;;;;18.87;8.73;;;;;;;11.30;36.56;102608.09;5115816;27;20513;-74
2022/03/06 03:15:58;;;;;;;20.27;8.67;;;;;;;10.23;39.19;102619.25;5133319;27;20023;-74
2022/03/06 03:18:23;;;;;;;17.50;8.37;;;;;;;10.73;38.03;102625.44;5132940;27;20549;-74
2022/03/06 03:20:50;;;;;;;16.60;7.33;;;;;;;10.19;38.61;102625.28;5115580;27;20031;-74
2022/03/06 03:23:15;;;;;;;19.33;7.63;;;;;;;10.72;38.41;102631.56;5114864;27;20062;-74
2022/03/06 03:25:40;;;;;;;21.10;8.03;;;;;;;10.92;37.78;102627.56;5114483;27;20038;-73
2022/03/06 03:28:05;;;;;;;22.50;8.57;;;;;;;10.07;39.63;102635.47;5115262;27;20023;-74
2022/03/06 03:30:31;;;;;;;17.07;7.37;;;;;;;9.81;39.84;102641.91;5114743;27;20486;-74
2022/03/06 03:32:56;;;;;;;18.20;8.60;;;;;;;10.56;38.98;102631.25;5114253;27;20055;-74
2022/03/06 03:35:22;;;;;;;21.33;8.30;;;;;;;10.91;38.01;102636.25;5132802;27;20146;-74
2022/03/06 03:37:47;;;;;;;20.57;8.20;;;;;;;10.14;39.25;102632.16;5115747;27;20030;-73
2022/03/06 03:40:12;;;;;;;22.40;9.60;;;;;;;10.63;38.51;102638.38;5111764;27;20031;-74
2022/03/06 03:42:38;;;;;;;17.40;8.47;;;;;;;10.99;37.38;102634.66;5133457;27;20085;-74
2022/03/06 03:45:05;;;;;;;23.50;9.93;;;;;;;10.62;38.33;102636.59;5114020;27;20034;-74
2022/03/06 03:47:30;;;;;;;22.53;9.60;;;;;;;9.34;40.25;102645.19;5114618;27;20072;-74
2022/03/06 03:49:56;;;;;;;21.17;9.83;;;;;;;10.66;38.80;102643.66;5114549;27;20050;-74
2022/03/06 03:52:21;;;;;;;18.47;8.00;;;;;;;10.10;39.12;102636.44;5114188;27;20110;-74
2022/03/06 03:54:46;;;;;;;21.47;9.30;;;;;;;9.90;39.10;102629.91;5114244;27;20534;-74
2022/03/06 03:57:13;;;;;;;22.80;9.63;;;;;;;10.12;39.21;102632.09;5132499;27;20039;-74
2022/03/06 03:59:39;;;;;;;24.03;10.23;;;;;;;10.21;38.89;102641.88;5115542;27;20027;-74
2022/03/06 04:02:04;;;;;;;23.53;10.07;;;;;;;10.46;38.22;102638.03;5112644;27;20375;-73
2022/03/06 04:04:30;;;;;;;21.27;9.53;;;;;;;11.06;37.31;102646.09;5133488;27;20030;-74
2022/03/06 04:06:56;;;;;;;19.50;9.47;;;;;;;10.06;39.03;102646.78;5114181;27;20478;-74
2022/03/06 04:09:21;;;;;;;21.43;10.23;;;;;;;10.74;37.76;102641.16;5113729;27;20486;-74
2022/03/06 04:11:47;;;;;;;21.00;9.63;;;;;;;10.37;38.88;102642.22;5113937;27;20157;-74
2022/03/06 04:14:12;;;;;;;21.07;10.00;;;;;;;11.65;36.63;102642.66;5131924;27;20035;-74
2022/03/06 04:16:37;;;;;;;22.00;9.77;;;;;;;10.23;38.75;102644.53;5113303;27;20157;-74
2022/03/06 04:19:04;;;;;;;21.33;8.57;;;;;;;10.58;38.48;102644.34;5114012;27;20423;-74
2022/03/06 04:21:29;;;;;;;27.77;12.60;;;;;;;11.23;37.08;102643.75;5113679;27;20109;-73
2022/03/06 04:23:55;;;;;;;20.57;9.53;;;;;;;10.85;38.30;102651.81;5110436;28;20459;-74
2022/03/06 04:26:20;;;;;;;24.20;10.90;;;;;;;11.66;36.86;102654.91;5109590;28;20058;-74
2022/03/06 04:28:45;;;;;;;24.17;10.90;;;;;;;10.90;38.14;102652.78;5109947;28;20527;-74
2022/03/06 04:31:10;;;;;;;26.13;10.47;;;;;;;9.85;40.23;102663.78;5110222;28;20043;-74
2022/03/06 04:33:36;;;;;;;24.67;11.30;;;;;;;10.66;39.47;102646.28;5111897;28;20032;-74
2022/03/06 04:36:01;;;;;;;24.03;11.43;;;;;;;11.51;36.91;102650.31;5109909;28;20035;-74
2022/03/06 04:38:26;;;;;;;26.70;11.60;;;;;;;11.09;37.54;102651.38;5109558;28;20075;-73
2022/03/06 04:40:52;;;;;;;23.87;10.97;;;;;;;11.06;38.07;102656.56;5111273;28;20027;-74
2022/03/06 04:43:18;;;;;;;21.40;10.23;;;;;;;11.68;36.48;102661.03;5109183;28;20424;-74
2022/03/06 04:45:44;;;;;;;22.67;10.83;;;;;;;10.87;38.33;102665.81;5111315;28;20043;-74
2022/03/06 04:48:09;;;;;;;26.40;12.03;;;;;;;10.34;38.83;102667.47;5109264;28;20460;-74
2022/03/06 04:50:34;;;;;;;22.23;11.33;;;;;;;10.45;38.90;102677.22;5109778;28;20436;-74
2022/03/06 04:53:00;;;;;;;25.70;11.40;;;;;;;11.17;36.92;102677.69;5090797;28;20515;-74
2022/03/06 04:55:25;;;;;;;26.70;12.10;;;;;;;11.35;36.89;102685.84;5110135;28;20034;-74
2022/03/06 04:57:50;;;;;;;27.47;11.87;;;;;;;9.85;40.03;102679.44;5109673;28;20027;-74
2022/03/06 05:00:16;;;;;;;27.40;11.43;;;;;;;10.76;37.82;102672.59;5109014;28;20042;-74
2022/03/06 05:02:42;;;;;;;32.50;12.73;;;;;;;10.37;39.36;102684.03;5110033;28;20471;-74
2022/03/06 05:05:09;;;;;;;28.57;13.27;;;;;;;10.88;37.44;102683.28;5108210;28;20020;-74
2022/03/06 05:07:34;;;;;;;25.43;13.00;;;;;;;10.59;38.02;102686.25;5110369;28;20024;-74
2022/03/06 05:10:00;;;;;;;27.13;11.63;;;;;;;10.60;37.34;102682.75;5109619;28;20038;-74
2022/03/06 05:12:25;;;;;;;26.87;13.30;;;;;;;10.94;36.72;102682.53;5108870;28;20054;-74
2022/03/06 05:14:50;;;;;;;24.83;12.03;;;;;;;10.96;36.73;102694.78;5109956;28;20114;-74
2022/03/06 05:17:16;;;;;;;36.40;13.90;;;;;;;11.74;34.99;102690.78;5108526;28;20065;-74
2022/03/06 05:19:42;;;;;;;26.00;12.47;;;;;;;10.98;36.71;102684.34;5109318;28;20088;-74
2022/03/06 05:22:07;;;;;;;23.50;11.83;;;;;;;10.69;37.21;102690.78;5108612;28;20047;-74
2022/03/06 05:24:33;;;;;;;24.77;12.33;;;;;;;10.30;38.17;102699.56;5110411;28;20479;-74
2022/03/06 05:26:58;;;;;;;21.50;10.73;;;;;;;9.95;38.86;102696.19;5109856;28;20031;-73
2022/03/06 05:29:23;;;;;;;18.80;9.07;;;;;;;10.35;37.86;102703.19;5109445;28;20630;-74
2022/03/06 05:31:49;;;;;;;26.30;11.23;;;;;;;9.60;39.55;102705.00;5109025;28;20039;-73
2022/03/06 05:34:14;;;;;;;19.27;9.57;;;;;;;9.73;38.19;102700.06;5109509;28;20055;-74
2022/03/06 05:36:40;;;;;;;25.27;11.63;;;;;;;10.74;36.88;102695.22;5101874;28;20050;-74
2022/03/06 05:39:05;;;;;;;23.77;9.83;;;;;;;10.10;38.11;102711.34;5087749;28;20254;-73
2022/03/06 05:41:30;;;;;;;22.70;9.17;;;;;;;10.25;37.84;102711.66;5096644;28;20077;-74
2022/03/06 05:43:56;;;;;;;23.63;10.20;;;;;;;10.67;36.27;102710.81;5111051;28;20080;-74
2022/03/06 05:46:21;;;;;;;20.23;9.57;;;;;;;9.71;38.66;102717.41;5107772;28;20028;-74
2022/03/06 05:48:48;;;;;;;24.83;10.00;;;;;;;10.01;37.68;102717.22;5110575;28;20118;-74
2022/03/06 05:51:14;;;;;;;22.70;10.00;;;;;;;10.47;36.85;102714.75;5109367;28;20023;-74
2022/03/06 05:53:39;;;;;;;20.40;9.83;;;;;;;10.51;37.09;102719.19;5110168;28;20035;-74
2022/03/06 05:56:05;;;;;;;15.93;7.77;;;;;;;9.25;39.19;102725.88;5108015;28;20097;-74
2022/03/06 05:58:30;;;;;;;19.50;10.13;;;;;;;9.99;38.34;102724.16;5110859;28;20436;-74
2022/03/06 06:00:56;;;;;;;24.63;10.07;;;;;;;9.84;37.88;102736.00;5108280;28;20091;-74
2022/03/06 06:03:21;;;;;;;18.27;9.93;;;;;;;10.83;36.77;102732.03;5091079;28;20085;-74
2022/03/06 06:05:46;;;;;;;19.00;9.30;;;;;;;10.43;36.93;102736.47;5110129;28;20102;-74
2022/03/06 06:08:11;;;;;;;26.20;11.30;;;;;;;10.94;35.93;102730.50;5106234;28;20104;-75
2022/03/06 06:10:37;;;;;;;22.33;10.57;;;;;;;10.11;37.86;102739.19;5109037;28;20020;-75
2022/03/06 06:13:08;;;;;;;19.20;9.70;;;;;;;10.06;37.27;102740.84;5099487;28;20527;-76
2022/03/06 06:15:33;;;;;;;23.83;10.37;;;;;;;10.39;36.99;102745.09;5095036;28;20284;-75
2022/03/06 06:17:59;;;;;;;20.10;9.50;;;;;;;10.24;36.89;102743.88;5108209;28;20031;-75
2022/03/06 06:20:24;;;;;;;23.93;10.07;;;;;;;10.06;37.94;102756.53;5108559;28;20024;-75
2022/03/06 06:22:53;;;;;;;16.30;7.50;;;;;;;9.14;39.06;102750.81;5106786;28;20545;-74
2022/03/06 06:25:18;;;;;;;17.97;9.23;;;;;;;9.10;39.81;102748.94;5108232;28;20020;-75
2022/03/06 06:27:43;;;;;;;17.37;9.07;;;;;;;9.00;39.13;102753.91;5108550;28;20039;-75
2022/03/06 06:30:09;;;;;;;19.97;8.80;;;;;;;9.90;38.33;102756.16;5107461;28;20027;-75
2022/03/06 06:32:35;;;;;;;18.50;8.70;;;;;;;9.48;38.88;102759.50;5108958;28;20475;-75
2022/03/06 06:35:00;;;;;;;21.00;9.17;;;;;;;9.56;38.94;102765.81;5108285;28;20070;-75
2022/03/06 06:37:25;;;;;;;22.77;9.97;;;;;;;9.40;39.53;102774.09;5107727;28;20114;-75
2022/03/06 06:39:53;;;;;;;21.00;9.27;;;;;;;9.66;38.93;102767.78;5108990;28;20471;-74
2022/03/06 06:42:19;;;;;;;14.83;7.63;;;;;;;9.32;39.01;102772.16;5107806;28;20031;-75
2022/03/06 06:44:44;;;;;;;17.93;9.67;;;;;;;10.08;37.87;102775.72;5109834;28;20028;-75
2022/03/06 06:47:09;;;;;;;17.13;9.20;;;;;;;9.61;38.98;102774.63;5108004;28;20058;-74
2022/03/06 06:49:35;;;;;;;20.00;8.27;;;;;;;10.41;37.30;102774.75;5108603;28;20507;-74
2022/03/06 06:52:00;;;;;;;17.43;8.50;;;;;;;9.62;38.80;102792.06;5108409;28;20425;-74
2022/03/06 06:54:25;;;;;;;13.00;6.90;;;;;;;9.44;38.82;102781.16;5108435;28;20506;-75
2022/03/06 06:56:53;;;;;;;18.10;8.37;;;;;;;9.58;38.19;102786.72;5107707;28;20027;-75
2022/03/06 06:59:19;;;;;;;19.23;8.77;;;;;;;9.71;38.47;102787.91;5109543;28;20035;-74
2022/03/06 07:01:44;;;;;;;15.07;8.27;;;;;;;10.27;37.31;102793.59;5108274;28;20028;-75
2022/03/06 07:04:10;;;;;;;19.00;8.97;;;;;;;10.72;37.30;102801.56;5109102;28;20034;-74
2022/03/06 07:06:35;;;;;;;17.87;8.57;;;;;;;10.35;37.39;102802.50;5108612;28;20386;-74
2022/03/06 07:09:00;;;;;;;20.30;9.07;;;;;;;10.59;37.01;102810.88;5110517;28;20471;-74
2022/03/06 07:11:26;;;;;;;23.20;8.93;;;;;;;10.05;38.53;102807.03;5110396;28;20076;-74
2022/03/06 07:13:51;;;;;;;18.23;8.63;;;;;;;10.09;38.39;102806.25;5113697;27;20027;-75
2022/03/06 07:16:17;;;;;;;11.40;5.50;;;;;;;9.31;39.56;102819.09;5113397;28;20033;-75
2022/03/06 07:18:42;;;;;;;16.53;9.13;;;;;;;11.36;35.88;102815.91;5111873;28;20239;-75
2022/03/06 07:21:09;;;;;;;17.33;7.93;;;;;;;10.32;37.70;102818.09;5108562;28;20031;-74
2022/03/06 07:23:34;;;;;;;12.27;7.23;;;;;;;10.07;38.65;102821.88;5112166;28;20044;-74
2022/03/06 07:26:00;;;;;;;13.33;7.53;;;;;;;10.17;38.03;102823.84;5112909;28;20075;-75
2022/03/06 07:28:26;;;;;;;17.07;9.53;;;;;;;9.74;39.08;102827.16;5111443;28;20067;-75
2022/03/06 07:30:51;;;;;;;17.50;8.50;;;;;;;10.97;37.47;102835.19;5111667;28;20023;-74
2022/03/06 07:33:17;;;;;;;21.17;8.93;;;;;;;11.03;37.71;102840.56;5110537;28;20023;-75
2022/03/06 07:35:42;;;;;;;23.37;8.97;;;;;;;10.00;39.16;102846.06;5112229;28;20439;-74
2022/03/06 07:38:08;;;;;;;14.93;7.17;;;;;;;10.43;39.07;102846.28;5110791;28;20031;-75
2022/03/06 07:40:33;;;;;;;16.00;9.23;;;;;;;11.76;36.27;102838.41;5110991;28;20393;-75
2022/03/06 07:42:59;;;;;;;18.03;7.80;;;;;;;10.37;38.57;102852.22;5111550;28;20054;-75
2022/03/06 07:45:24;;;;;;;20.40;8.33;;;;;;;11.33;37.07;102852.50;5111906;28;20035;-74
2022/03/06 07:47:49;;;;;;;15.43;8.57;;;;;;;10.93;37.67;102848.19;5111260;28;20103;-74
2022/03/06 07:50:15;;;;;;;18.23;9.00;;;;;;;9.58;40.15;102847.66;5110556;28;20698;-75
2022/03/06 07:52:41;;;;;;;17.50;8.97;;;;;;;10.02;39.06;102855.72;5112013;28;20410;-74
2022/03/06 07:55:07;;;;;;;14.93;8.13;;;;;;;11.77;36.70;102840.16;5110704;28;20453;-75
2022/03/06 07:57:33;;;;;;;15.67;8.17;;;;;;;10.23;38.81;102846.63;5111307;28;20368;-75
2022/03/06 07:59:59;;;;;;;16.40;7.83;;;;;;;10.24;38.77;102851.03;5110577;28;20394;-75
2022/03/06 08:02:24;;;;;;;16.10;8.43;;;;;;;10.27;39.25;102848.47;5110727;28;20032;-75
2022/03/06 08:04:50;;;;;;;17.10;8.37;;;;;;;10.61;38.45;102858.88;5111267;28;20023;-75
2022/03/06 08:07:15;;;;;;;15.83;8.77;;;;;;;11.65;36.59;102852.22;5109223;28;20040;-74
2022/03/06 08:09:40;;;;;;;14.73;8.30;;;;;;;10.59;38.61;102858.84;5111374;28;20039;-75
2022/03/06 08:12:06;;;;;;;15.37;8.43;;;;;;;10.30;39.08;102868.56;5110348;28;20091;-74
2022/03/06 08:14:32;;;;;;;13.37;8.07;;;;;;;10.84;38.00;102862.84;5110154;28;20106;-73
2022/03/06 08:16:57;;;;;;;15.87;8.80;;;;;;;10.54;38.74;102878.75;5110167;28;20114;-73
2022/03/06 08:19:23;;;;;;;15.57;8.07;;;;;;;10.32;39.31;102875.63;5109778;28;20349;-73
2022/03/06 08:21:48;;;;;;;15.67;7.50;;;;;;;10.09;39.32;102882.03;5111243;27;20106;-73
2022/03/06 08:24:14;;;;;;;13.27;8.27;;;;;;;10.88;38.12;102879.50;5112763;27;20482;-73
2022/03/06 08:26:40;;;;;;;17.67;8.67;;;;;;;11.61;36.89;102879.19;5132151;27;20015;-73
2022/03/06 08:29:06;;;;;;;12.27;7.47;;;;;;;11.29;36.95;102889.06;5112587;27;20432;-73
2022/03/06 08:31:31;;;;;;;13.80;7.00;;;;;;;9.91;39.20;102888.53;5114304;27;20019;-73
2022/03/06 08:33:56;;;;;;;11.57;6.50;;;;;;;10.85;37.37;102893.41;5112629;27;20015;-73
2022/03/06 08:36:22;;;;;;;11.97;6.70;;;;;;;10.17;38.11;102880.47;5109503;27;20047;-73
2022/03/06 08:38:47;;;;;;;11.23;6.23;;;;;;;11.87;35.39;102878.78;5113693;27;20107;-73
2022/03/06 08:41:13;;;;;;;6.87;4.23;;;;;;;10.65;37.39;102886.84;5112470;27;20019;-73
2022/03/06 08:43:38;;;;;;;11.53;5.53;;;;;;;11.44;35.91;102898.94;5130438;27;20372;-73
2022/03/06 08:46:04;;;;;;;8.77;5.03;;;;;;;10.01;38.00;102895.78;5111837;27;20017;-73
2022/03/06 08:48:30;;;;;;;9.13;6.10;;;;;;;12.10;34.68;102891.41;5112458;27;20027;-72
2022/03/06 08:50:56;;;;;;;13.57;6.00;;;;;;;10.15;36.78;102892.59;5130306;27;20170;-72
2022/03/06 08:53:22;;;;;;;11.27;4.70;;;;;;;11.77;34.66;102885.56;5113369;27;20024;-73
2022/03/06 08:55:47;;;;;;;7.93;4.70;;;;;;;10.55;36.47;102883.16;5111397;27;20494;-73
2022/03/06 08:58:12;;;;;;;7.60;5.10;;;;;;;12.27;34.15;102889.06;5112076;27;20023;-73
2022/03/06 09:00:38;;;;;;;6.63;4.70;;;;;;;12.08;33.72;102891.38;5113849;27;20039;-73
2022/03/06 09:03:06;;;;;;;12.17;5.10;;;;;;;11.63;34.15;102885.34;5112150;27;20538;-72
2022/03/06 09:05:31;;;;;;;10.27;4.87;;;;;;;11.32;34.63;102887.38;5113197;27;20108;-75
2022/03/06 09:07:57;;;;;;;9.33;3.90;;;;;;;10.85;35.17;102887.28;5113067;27;20108;-72
2022/03/06 09:10:23;;;;;;;7.00;4.20;;;;;;;11.96;32.87;102894.69;5130686;27;20023;-72
2022/03/06 09:12:48;;;;;;;7.40;4.23;;;;;;;11.15;33.78;102897.50;5131531;27;20023;-72
2022/03/06 09:15:14;;;;;;;6.47;4.63;;;;;;;11.79;33.39;102902.22;5111500;27;20031;-72
2022/03/06 09:17:40;;;;;;;5.37;3.50;;;;;;;10.38;34.89;102900.16;5112302;27;20023;-72
2022/03/06 09:20:06;;;;;;;9.77;4.10;;;;;;;11.30;33.74;102901.28;5112345;27;20037;-72
2022/03/06 09:22:31;;;;;;;7.00;4.40;;;;;;;12.23;32.49;102890.75;5108464;28;20402;-71
2022/03/06 09:24:57;;;;;;;7.63;3.50;;;;;;;12.25;32.08;102902.13;5091898;28;20131;-72
2022/03/06 09:27:22;;;;;;;6.47;3.50;;;;;;;12.68;31.15;102899.28;5109653;28;20031;-71
2022/03/06 09:29:47;;;;;;;7.63;3.50;;;;;;;14.98;28.05;102883.03;5109777;28;20118;-72
2022/03/06 09:32:13;;;;;;;8.20;3.90;;;;;;;15.87;26.58;102884.16;5107556;28;20463;-71
2022/03/06 09:34:38;;;;;;;5.90;2.97;;;;;;;15.03;26.84;102894.47;5108641;28;20482;-71
2022/03/06 09:37:04;;;;;;;7.90;3.57;;;;;;;15.64;26.54;102889.38;5109430;28;20035;-71
2022/03/06 09:39:30;;;;;;;6.53;3.50;;;;;;;15.05;26.80;102897.13;5107877;28;20114;-71
2022/03/06 09:41:56;;;;;;;4.37;2.90;;;;;;;14.31;27.28;102887.00;5108656;28;20547;-72
2022/03/06 09:44:24;;;;;;;5.53;3.40;;;;;;;15.38;26.55;102885.78;5109529;28;20026;-71
2022/03/06 09:46:52;;;;;;;4.27;3.03;;;;;;;15.56;26.07;102889.34;5107620;28;20030;-71
2022/03/06 09:49:18;;;;;;;5.93;3.60;;;;;;;15.91;25.92;102885.94;5109114;28;20023;-72
2022/03/06 09:51:43;;;;;;;4.97;3.20;;;;;;;16.27;25.20;102895.56;5109308;28;20398;-71
2022/03/06 09:54:12;;;;;;;5.47;3.10;;;;;;;16.28;24.48;102885.91;5107104;28;20081;-71
2022/03/06 09:56:38;;;;;;;5.13;3.63;;;;;;;16.68;24.97;102888.44;5110098;28;20031;-71
2022/03/06 09:59:04;;;;;;;7.43;3.47;;;;;;;17.62;23.77;102876.56;5109030;28;20016;-72
2022/03/06 10:01:30;;;;;;;9.13;5.13;;;;;;;17.08;24.35;102885.69;5108244;28;20055;-72
2022/03/06 10:03:55;;;;;;;11.13;5.47;;;;;;;16.83;24.58;102890.16;5108946;28;20176;-72
2022/03/06 10:06:20;;;;;;;6.73;3.33;;;;;;;16.51;24.51;102884.97;5107224;28;20019;-73
2022/03/06 10:08:46;;;;;;;6.03;3.20;;;;;;;16.53;24.46;102891.13;5110753;28;20032;-73
2022/03/06 10:11:12;;;;;;;4.87;2.80;;;;;;;15.61;25.91;102890.25;5106878;28;20034;-72
2022/03/06 10:13:43;;;;;;;4.73;3.23;;;;;;;16.23;25.21;102903.50;5108119;28;21481;-72
2022/03/06 10:16:19;;;;;;;8.43;4.03;;;;;;;15.18;26.45;102888.41;5107358;28;20039;-73
2022/03/06 10:18:49;;;;;;;5.23;3.17;;;;;;;14.42;26.56;102879.19;5102508;28;20080;-72
2022/03/06 10:21:24;;;;;;;7.33;3.90;;;;;;;14.84;26.99;102896.16;5103969;28;20462;-72
2022/03/06 10:23:53;;;;;;;6.93;3.00;;;;;;;15.48;26.38;102888.47;5109162;28;20048;-72
2022/03/06 10:26:22;;;;;;;5.23;3.10;;;;;;;15.63;26.53;102896.38;5107861;28;20118;-72
2022/03/06 10:28:55;;;;;;;6.40;4.10;;;;;;;15.70;26.34;102882.38;5107994;28;20015;-72
2022/03/06 10:31:23;;;;;;;6.33;3.50;;;;;;;16.06;26.22;102900.84;5107209;28;20023;-72
2022/03/06 10:34:10;;;;;;;5.30;2.80;;;;;;;16.02;25.56;102900.00;5108650;28;20080;-72
2022/03/06 10:36:44;;;;;;;4.03;3.00;;;;;;;15.26;26.44;102906.84;5100906;28;20521;-73
2022/03/06 10:39:13;;;;;;;5.30;3.20;;;;;;;15.15;27.04;102908.56;5107112;28;20452;-73
2022/03/06 10:41:41;;;;;;;6.70;3.57;;;;;;;15.68;26.46;102902.56;5091306;28;20093;-73
2022/03/06 10:44:11;;;;;;;4.77;2.90;;;;;;;16.60;25.19;102903.44;5109979;28;20069;-73
2022/03/06 10:46:37;;;;;;;4.53;3.23;;;;;;;16.72;25.17;102897.22;5112464;28;20020;-73
2022/03/06 10:49:10;;;;;;;6.50;3.00;;;;;;;17.36;24.44;102903.16;5111685;28;20069;-73
2022/03/06 10:51:52;;;;;;;4.85;2.53;;;;;;;16.26;24.95;102914.03;5109844;28;20024;-73
2022/03/06 10:54:18;;;;;;;6.00;3.13;;;;;;;18.41;22.61;102900.59;5108729;28;20506;-72
2022/03/06 10:56:47;;;;;;;4.17;2.97;;;;;;;19.24;22.79;102903.19;5109358;28;20038;-73
2022/03/06 10:59:12;;;;;;;4.10;2.83;;;;;;;17.77;23.70;102900.22;5103166;28;20042;-73
2022/03/06 11:01:38;;;;;;;3.77;3.07;;;;;;;17.95;23.68;102906.31;5108861;28;20027;-74
2022/03/06 11:04:06;;;;;;;4.60;3.20;;;;;;;17.68;23.75;102902.06;5108004;28;20042;-73
2022/03/06 11:06:41;;;;;;;4.93;2.80;;;;;;;16.93;23.99;102898.97;5107837;28;20020;-73
2022/03/06 11:09:13;;;;;;;5.30;2.83;;;;;;;16.58;24.19;102902.53;5110420;28;20070;-73
2022/03/06 11:11:43;;;;;;;5.68;3.10;;;;;;;17.78;23.19;102891.41;5112637;28;20055;-73
2022/03/06 11:14:10;;;;;;;5.30;3.47;;;;;;;18.12;23.17;102893.81;5111204;28;20028;-73